Google Maps JavaScript API Example
Pilot Flight Report # 93035 Submitted by : AST775 on 2019-06-12
Date: 2019-06-12Aircraft: DeHavilland DHC6 Twin Otter - Wheeled
Flight No.: AST1203Distance (Nm): 112.80
Departure: MYGF - Grand Bahama InternationalDestination: MYNN - Nassau Intl
 TimeFuelWeightSpeeds  
Out (Taxi)2029Z1018 lbs9805 lbs Flight RulesVFR
Off (Takeoff)2041Z 9786 lbs85 ktsFlight Level6500
On (Landing)2122Z 9272 lbs93 ktsVSTD-168 ft/min
In (Ramp)2122Z489 lbs9272 lbs ZFW8784 lbs
Flight0.70  -  0:41516 lbs  Pax0
Block0.88  -  0:53529 lbs  Cargo0
Departure WeatherMYGF 262029Z 04713KT 46SM FEW020 28/22 A3007
Destination WeatherMYNN 262122Z 06812KT 56SM BKN020 27/21 A3008
Flight Commentsjune leg 16 MYGF-MYNN